Time;durP1;ratioP1;P1;durP2;ratioP2;P2;SDS_P1;SDS_P2;PMS_P1;PMS_P2;Temp;Humidity;BMP_temperature;BMP_pressure;BME280_temperature;BME280_humidity;BME280_pressure;Samples;Min_cycle;Max_cycle;Signal;HPM_P1;HPM_P2
2021/06/12 00:02:04;;;;;;;10.52;5.60;;;18.10;69.60;;;;;;6278167;22;20010;-85
2021/06/12 00:04:30;;;;;;;8.15;5.45;;;18.10;69.60;;;;;;6279792;22;20039;-85
2021/06/12 00:06:58;;;;;;;6.32;5.72;;;18.10;69.60;;;;;;6278619;22;20087;-84
2021/06/12 00:09:24;;;;;;;10.05;6.20;;;18.10;69.70;;;;;;6278415;22;20031;-85
2021/06/12 00:11:50;;;;;;;10.35;5.35;;;18.10;69.80;;;;;;6306770;22;20029;-85
2021/06/12 00:14:16;;;;;;;6.32;4.88;;;18.10;69.80;;;;;;6279270;22;20434;-85
2021/06/12 00:16:42;;;;;;;5.68;4.80;;;18.00;69.50;;;;;;6278919;22;19995;-85
2021/06/12 00:19:08;;;;;;;7.00;4.95;;;18.00;69.80;;;;;;6278519;22;20069;-85
2021/06/12 00:21:36;;;;;;;8.23;4.40;;;17.90;69.80;;;;;;6280333;22;20076;-85
2021/06/12 00:24:03;;;;;;;9.38;5.38;;;17.90;69.80;;;;;;6307308;22;20003;-85
2021/06/12 00:26:30;;;;;;;13.65;5.57;;;17.90;70.00;;;;;;6306756;22;19995;-84
2021/06/12 00:28:57;;;;;;;6.30;4.97;;;17.80;70.30;;;;;;6280035;22;20462;-85
2021/06/12 00:31:23;;;;;;;7.05;5.60;;;17.80;70.90;;;;;;6279738;22;20009;-85
2021/06/12 00:33:48;;;;;;;14.25;6.05;;;17.90;70.30;;;;;;6279232;22;19999;-85
2021/06/12 00:36:14;;;;;;;8.82;5.53;;;17.80;70.30;;;;;;6278641;22;20078;-84
2021/06/12 00:38:40;;;;;;;11.10;4.88;;;17.90;70.20;;;;;;6307111;22;20076;-85
2021/06/12 00:41:09;;;;;;;7.55;5.53;;;17.80;70.10;;;;;;6278667;22;20434;-85
2021/06/12 00:43:35;;;;;;;10.25;4.80;;;17.80;70.00;;;;;;6280164;22;19999;-84
2021/06/12 00:46:01;;;;;;;8.43;5.20;;;17.80;70.00;;;;;;6278117;22;20045;-84
2021/06/12 00:48:27;;;;;;;6.97;4.75;;;17.80;69.90;;;;;;6278708;22;20342;-85
2021/06/12 00:50:55;;;;;;;8.18;4.60;;;17.80;69.80;;;;;;6279126;22;20003;-85
2021/06/12 00:53:36;;;;;;;10.55;5.45;;;17.80;69.70;;;;;;6279114;22;20035;-85
2021/06/12 00:56:08;;;;;;;6.43;4.53;;;17.80;69.60;;;;;;6278981;22;20053;-85
2021/06/12 00:58:35;;;;;;;8.77;4.82;;;17.80;69.80;;;;;;6279469;22;20007;-85
2021/06/12 01:01:03;;;;;;;7.70;5.00;;;17.80;69.30;;;;;;6278953;22;20073;-85
2021/06/12 01:03:29;;;;;;;8.70;5.13;;;17.80;69.20;;;;;;6279631;22;20007;-84
2021/06/12 01:05:56;;;;;;;5.88;4.70;;;17.80;69.50;;;;;;6307667;22;20003;-84
2021/06/12 01:08:22;;;;;;;8.75;4.72;;;17.70;69.50;;;;;;6281628;22;20098;-85
2021/06/12 01:10:48;;;;;;;5.97;5.38;;;17.70;69.60;;;;;;6282365;22;20086;-85
2021/06/12 01:13:31;;;;;;;9.30;5.03;;;17.60;69.70;;;;;;6283153;22;20030;-85
2021/06/12 01:16:13;;;;;;;7.13;5.22;;;17.60;70.10;;;;;;6282087;22;20027;-85
2021/06/12 01:18:43;;;;;;;6.65;4.97;;;17.50;70.00;;;;;;6281685;22;20003;-85
2021/06/12 01:21:34;;;;;;;7.10;5.20;;;17.50;70.20;;;;;;6282673;22;19999;-85
2021/06/12 01:24:12;;;;;;;6.85;5.38;;;17.50;70.20;;;;;;6283673;22;20026;-85
2021/06/12 01:27:11;;;;;;;8.77;5.35;;;17.50;70.20;;;;;;6282996;22;20052;-85
2021/06/12 01:30:09;;;;;;;6.90;5.20;;;17.50;70.20;;;;;;6309750;22;20007;-85
2021/06/12 01:32:40;;;;;;;5.28;4.47;;;17.50;70.10;;;;;;6281778;22;20003;-85
2021/06/12 01:35:11;;;;;;;6.55;4.45;;;17.50;70.10;;;;;;6281581;22;20003;-85
2021/06/12 01:37:41;;;;;;;12.07;5.72;;;17.50;70.00;;;;;;6310044;22;20007;-85
2021/06/12 01:40:09;;;;;;;10.57;6.22;;;17.40;69.90;;;;;;6309505;22;20006;-85
2021/06/12 01:42:37;;;;;;;8.55;5.63;;;17.40;70.20;;;;;;6309256;22;20070;-85
2021/06/12 01:45:04;;;;;;;7.03;4.60;;;17.50;70.40;;;;;;6281929;22;20061;-85
2021/06/12 01:47:31;;;;;;;7.32;4.10;;;17.40;70.20;;;;;;6309833;22;20003;-85
2021/06/12 01:49:59;;;;;;;6.60;4.63;;;17.50;70.20;;;;;;6282687;22;20057;-85
2021/06/12 01:52:25;;;;;;;10.27;5.05;;;17.50;69.80;;;;;;6282135;22;20003;-85
2021/06/12 01:54:55;;;;;;;7.13;5.40;;;17.60;69.70;;;;;;6281730;22;20002;-85
2021/06/12 01:57:21;;;;;;;7.40;5.40;;;17.50;69.80;;;;;;6309678;22;19996;-85
2021/06/12 01:59:49;;;;;;;7.72;6.15;;;17.50;69.90;;;;;;6310343;22;20295;-85
2021/06/12 02:02:16;;;;;;;6.95;5.00;;;17.50;69.70;;;;;;6281385;22;20009;-84
2021/06/12 02:04:43;;;;;;;10.05;4.70;;;17.50;69.90;;;;;;6280515;22;20082;-84
2021/06/12 02:07:09;;;;;;;7.97;4.70;;;17.40;69.80;;;;;;6282274;22;20072;-84
2021/06/12 02:09:37;;;;;;;5.03;4.40;;;17.40;69.80;;;;;;6310020;22;20026;-85
2021/06/12 02:12:05;;;;;;;8.93;4.30;;;17.40;69.50;;;;;;6282734;22;20014;-82
2021/06/12 02:14:33;;;;;;;9.68;4.78;;;17.20;69.50;;;;;;6310259;22;19995;-82
2021/06/12 02:17:00;;;;;;;5.28;4.40;;;17.20;70.50;;;;;;6281898;22;20003;-82
2021/06/12 02:19:26;;;;;;;5.10;4.60;;;17.20;70.00;;;;;;6279435;22;20319;-83
2021/06/12 02:21:53;;;;;;;10.30;5.50;;;17.30;69.90;;;;;;6280532;22;20010;-82
2021/06/12 02:24:19;;;;;;;7.57;5.13;;;17.30;69.70;;;;;;6308215;22;19999;-83
2021/06/12 02:26:48;;;;;;;5.28;4.78;;;17.20;70.00;;;;;;6281031;22;20004;-83
2021/06/12 02:29:17;;;;;;;5.55;5.05;;;17.20;70.10;;;;;;6281351;22;20007;-83
2021/06/12 02:32:07;;;;;;;7.47;5.55;;;17.30;70.00;;;;;;6308079;22;20022;-82
2021/06/12 02:34:33;;;;;;;7.53;4.95;;;17.30;69.80;;;;;;6262084;22;20004;-83
2021/06/12 02:37:00;;;;;;;5.30;4.80;;;17.20;69.90;;;;;;6307581;22;20003;-83
2021/06/12 02:39:26;;;;;;;7.53;5.32;;;17.20;69.90;;;;;;6279718;22;20086;-82
2021/06/12 02:41:52;;;;;;;5.60;4.43;;;17.20;69.80;;;;;;6280745;22;20038;-82
2021/06/12 02:44:17;;;;;;;7.03;4.75;;;17.10;69.90;;;;;;6308572;22;20006;-82
2021/06/12 02:46:45;;;;;;;13.10;4.70;;;17.20;69.90;;;;;;6307281;22;20432;-82
2021/06/12 02:49:13;;;;;;;6.07;4.57;;;17.20;69.80;;;;;;6308047;22;20007;-82
2021/06/12 02:51:44;;;;;;;7.88;4.85;;;17.20;69.60;;;;;;6279833;22;20003;-84
2021/06/12 02:54:10;;;;;;;5.78;5.28;;;17.10;69.70;;;;;;6308558;22;20078;-85
2021/06/12 02:56:37;;;;;;;6.15;5.10;;;17.10;69.60;;;;;;6279314;22;20341;-85
2021/06/12 02:59:12;;;;;;;6.43;4.45;;;17.00;70.20;;;;;;6280538;22;20323;-84
2021/06/12 03:01:40;;;;;;;5.00;4.50;;;16.90;70.00;;;;;;6306563;22;20452;-85
2021/06/12 03:04:09;;;;;;;5.72;4.65;;;16.90;70.10;;;;;;6307241;22;20007;-85
2021/06/12 03:06:38;;;;;;;6.65;5.93;;;16.80;70.20;;;;;;6279748;22;20003;-85
2021/06/12 03:09:04;;;;;;;6.45;5.53;;;16.80;70.40;;;;;;6307139;22;20029;-84
2021/06/12 03:11:33;;;;;;;6.47;5.65;;;16.90;70.50;;;;;;6280419;22;20003;-85
2021/06/12 03:13:59;;;;;;;6.70;5.28;;;16.80;70.40;;;;;;6308051;22;20440;-84
2021/06/12 03:16:26;;;;;;;6.28;5.20;;;16.90;70.70;;;;;;6280834;22;20018;-85
2021/06/12 03:19:13;;;;;;;5.47;4.93;;;16.90;70.40;;;;;;6280677;22;20064;-84
2021/06/12 03:21:39;;;;;;;5.53;4.30;;;16.70;70.30;;;;;;6279241;22;20009;-84
2021/06/12 03:24:06;;;;;;;5.88;4.90;;;16.80;70.60;;;;;;6280058;22;20007;-84
2021/06/12 03:26:33;;;;;;;7.70;5.00;;;16.70;70.20;;;;;;6307451;22;20417;-84
2021/06/12 03:29:04;;;;;;;5.88;4.72;;;16.70;70.40;;;;;;6279744;22;20003;-84
2021/06/12 03:31:30;;;;;;;10.80;4.82;;;16.80;70.80;;;;;;6279283;22;20059;-84
2021/06/12 03:33:57;;;;;;;5.53;4.15;;;16.80;70.40;;;;;;6278976;22;20441;-84
2021/06/12 03:36:26;;;;;;;5.68;4.60;;;16.80;70.40;;;;;;6279707;22;20086;-84
2021/06/12 03:38:55;;;;;;;10.45;5.60;;;16.80;70.30;;;;;;6278392;22;20093;-84
2021/06/12 03:41:22;;;;;;;6.30;5.18;;;17.00;70.20;;;;;;6306695;22;20003;-84
2021/06/12 03:43:49;;;;;;;9.90;5.57;;;17.00;70.10;;;;;;6279952;22;20449;-84
2021/06/12 03:46:17;;;;;;;7.18;5.22;;;17.10;70.00;;;;;;6307144;22;20043;-83
2021/06/12 03:48:48;;;;;;;6.07;5.47;;;17.00;70.00;;;;;;6306376;22;20023;-84
2021/06/12 03:51:16;;;;;;;5.60;4.97;;;17.10;70.10;;;;;;6279511;22;20588;-84
2021/06/12 03:53:45;;;;;;;5.63;5.00;;;17.10;70.00;;;;;;6306496;22;20539;-84
2021/06/12 03:56:25;;;;;;;6.55;5.45;;;17.20;69.50;;;;;;6278651;22;20003;-84
2021/06/12 03:58:54;;;;;;;8.13;5.78;;;17.20;69.40;;;;;;6306849;22;20010;-84
2021/06/12 04:01:20;;;;;;;6.38;5.55;;;17.30;69.40;;;;;;6278628;22;20007;-84
2021/06/12 04:03:46;;;;;;;5.40;4.85;;;17.20;69.30;;;;;;6305942;22;20334;-84
2021/06/12 04:06:12;;;;;;;8.30;5.90;;;17.10;69.70;;;;;;6279710;22;20029;-84
2021/06/12 04:08:39;;;;;;;6.18;5.45;;;17.00;69.70;;;;;;6279285;22;20011;-84
2021/06/12 04:11:06;;;;;;;6.75;4.85;;;17.00;70.20;;;;;;6305927;22;20070;-84
2021/06/12 04:13:32;;;;;;;7.00;5.38;;;17.20;70.10;;;;;;6305848;22;19999;-84
2021/06/12 04:15:58;;;;;;;9.52;6.13;;;17.30;69.70;;;;;;6305855;22;19996;-84
2021/06/12 04:18:24;;;;;;;8.68;6.50;;;17.30;69.40;;;;;;6305768;22;20023;-84
2021/06/12 04:20:51;;;;;;;11.52;6.22;;;17.30;69.40;;;;;;6279450;22;20437;-84
2021/06/12 04:23:17;;;;;;;5.43;4.72;;;17.30;69.40;;;;;;6279950;22;20010;-85
2021/06/12 04:25:43;;;;;;;6.50;5.90;;;17.40;69.50;;;;;;6279893;22;20007;-84
2021/06/12 04:28:09;;;;;;;6.88;5.75;;;17.40;69.10;;;;;;6306651;22;20069;-84
2021/06/12 04:30:35;;;;;;;6.07;5.40;;;17.40;69.10;;;;;;6278789;22;20007;-84
2021/06/12 04:33:04;;;;;;;7.35;5.15;;;17.60;68.90;;;;;;6279007;22;20038;-84
2021/06/12 04:35:30;;;;;;;7.80;6.40;;;17.60;68.40;;;;;;6279502;22;20033;-84
2021/06/12 04:38:00;;;;;;;10.73;6.55;;;17.60;68.50;;;;;;6278574;22;20011;-84
2021/06/12 04:40:28;;;;;;;8.93;6.00;;;17.60;68.60;;;;;;6306258;22;19999;-84
2021/06/12 04:42:53;;;;;;;10.32;6.35;;;17.60;68.60;;;;;;6279495;22;20010;-84
2021/06/12 04:45:19;;;;;;;8.35;5.38;;;17.70;68.40;;;;;;6278846;22;20023;-84
2021/06/12 04:47:45;;;;;;;5.97;5.38;;;17.70;68.30;;;;;;6279319;22;20434;-84
2021/06/12 04:50:11;;;;;;;8.13;5.15;;;17.80;68.00;;;;;;6306549;22;20435;-84
2021/06/12 04:52:38;;;;;;;7.28;5.30;;;17.80;67.90;;;;;;6306555;22;20064;-84
2021/06/12 04:55:06;;;;;;;7.72;5.88;;;17.80;67.90;;;;;;6279466;22;20008;-84
2021/06/12 04:57:32;;;;;;;6.25;5.32;;;17.90;67.90;;;;;;6306180;22;20387;-83
2021/06/12 04:59:57;;;;;;;6.30;5.70;;;17.90;67.80;;;;;;6306126;22;20074;-84
2021/06/12 05:02:23;;;;;;;7.45;5.55;;;17.80;67.80;;;;;;6305867;22;19999;-84
2021/06/12 05:04:49;;;;;;;9.10;6.82;;;17.80;68.10;;;;;;6279730;22;19999;-84
2021/06/12 05:07:15;;;;;;;7.20;6.20;;;17.80;67.90;;;;;;6278978;22;20006;-84
2021/06/12 05:09:40;;;;;;;9.32;6.57;;;17.70;67.70;;;;;;6305619;22;20070;-84
2021/06/12 05:12:07;;;;;;;9.20;6.43;;;17.60;68.00;;;;;;6306521;22;20045;-84
2021/06/12 05:14:32;;;;;;;7.93;6.75;;;17.40;68.30;;;;;;6307388;22;20333;-84
2021/06/12 05:17:01;;;;;;;7.70;6.90;;;17.40;68.60;;;;;;6279378;22;20000;-84
2021/06/12 05:19:27;;;;;;;10.05;7.07;;;17.30;68.60;;;;;;6279144;22;20417;-84
2021/06/12 05:21:53;;;;;;;8.15;6.68;;;17.20;68.90;;;;;;6278505;22;20128;-84
2021/06/12 05:24:19;;;;;;;8.77;7.03;;;17.20;69.30;;;;;;6307730;22;20027;-85
2021/06/12 05:26:45;;;;;;;5.60;5.00;;;17.10;69.10;;;;;;6278506;22;20009;-84
2021/06/12 05:29:11;;;;;;;11.63;6.22;;;17.00;69.60;;;;;;6305576;22;20074;-84
2021/06/12 05:31:37;;;;;;;7.80;7.00;;;17.20;69.50;;;;;;6278297;22;19999;-84
2021/06/12 05:34:03;;;;;;;8.05;6.78;;;17.30;69.20;;;;;;6253461;22;20349;-84
2021/06/12 05:36:30;;;;;;;7.25;6.50;;;17.30;68.80;;;;;;6306799;22;20010;-84
2021/06/12 05:38:55;;;;;;;7.15;5.90;;;17.20;69.10;;;;;;6306508;22;20341;-84
2021/06/12 05:41:21;;;;;;;7.35;6.65;;;17.20;69.20;;;;;;6278967;22;20003;-84
2021/06/12 05:43:47;;;;;;;7.13;6.35;;;17.20;69.20;;;;;;6306097;22;20057;-84
2021/06/12 05:46:12;;;;;;;8.75;7.28;;;17.20;69.20;;;;;;6306496;22;20089;-85
2021/06/12 05:48:38;;;;;;;7.43;6.28;;;17.20;69.10;;;;;;6279478;22;20022;-85
2021/06/12 05:51:04;;;;;;;8.50;7.10;;;17.10;69.30;;;;;;6278603;22;20003;-85
2021/06/12 05:53:30;;;;;;;7.95;6.40;;;17.20;69.30;;;;;;6307697;22;20372;-85
2021/06/12 05:55:56;;;;;;;7.32;5.65;;;17.20;69.30;;;;;;6280847;22;20003;-85
2021/06/12 05:58:21;;;;;;;7.03;6.22;;;17.20;69.60;;;;;;6280843;22;20074;-85
2021/06/12 06:00:47;;;;;;;9.55;7.20;;;17.30;69.50;;;;;;6278998;22;20015;-85
2021/06/12 06:03:14;;;;;;;9.00;7.95;;;17.30;69.50;;;;;;6306970;22;20010;-84
2021/06/12 06:05:40;;;;;;;10.80;7.35;;;17.20;69.70;;;;;;6307295;22;20003;-85
2021/06/12 06:08:05;;;;;;;8.10;7.07;;;17.20;69.90;;;;;;6280530;22;20003;-85
2021/06/12 06:10:31;;;;;;;8.38;6.97;;;17.20;69.80;;;;;;6281278;22;20445;-85
2021/06/12 06:13:02;;;;;;;11.27;6.75;;;17.20;70.00;;;;;;6307115;22;19999;-85
2021/06/12 06:15:27;;;;;;;10.07;6.60;;;17.30;70.00;;;;;;6281281;22;20026;-85
2021/06/12 06:17:53;;;;;;;10.52;7.53;;;17.40;69.90;;;;;;6280187;22;20042;-85
2021/06/12 06:20:19;;;;;;;7.80;6.70;;;17.40;69.90;;;;;;6280348;22;20029;-84
2021/06/12 06:22:44;;;;;;;7.88;7.07;;;17.50;70.00;;;;;;6278467;22;20007;-84
2021/06/12 06:25:11;;;;;;;7.63;6.85;;;17.60;69.70;;;;;;6278586;22;20095;-84
2021/06/12 06:27:37;;;;;;;8.13;6.32;;;17.80;69.70;;;;;;6278592;22;20003;-85
2021/06/12 06:30:04;;;;;;;7.63;6.43;;;17.80;69.40;;;;;;6306338;22;20010;-85
2021/06/12 06:32:30;;;;;;;8.32;6.63;;;17.90;69.30;;;;;;6306570;22;20006;-84
2021/06/12 06:34:56;;;;;;;11.93;6.53;;;18.00;69.20;;;;;;6306403;22;19995;-84
2021/06/12 06:37:22;;;;;;;9.60;7.07;;;18.10;68.80;;;;;;6306684;22;20031;-84
2021/06/12 06:39:48;;;;;;;7.40;5.88;;;18.20;68.70;;;;;;6279296;22;20007;-84
2021/06/12 06:42:13;;;;;;;7.75;5.50;;;18.30;68.40;;;;;;6306359;22;20338;-84
2021/06/12 06:44:39;;;;;;;6.15;5.32;;;18.40;68.10;;;;;;6306057;22;20092;-84
2021/06/12 06:47:06;;;;;;;6.35;5.00;;;18.50;67.90;;;;;;6306130;22;20035;-85
2021/06/12 06:49:31;;;;;;;5.60;4.93;;;18.60;67.70;;;;;;6306037;22;20319;-84
2021/06/12 06:51:59;;;;;;;6.70;4.82;;;18.80;67.10;;;;;;6305659;22;20070;-85
2021/06/12 06:54:25;;;;;;;8.38;5.22;;;18.80;66.20;;;;;;6306542;22;20002;-85
2021/06/12 06:56:51;;;;;;;5.57;5.05;;;18.80;66.10;;;;;;6280423;22;20383;-85
2021/06/12 06:59:16;;;;;;;7.40;5.47;;;18.90;65.90;;;;;;6280293;22;20003;-85
2021/06/12 07:01:42;;;;;;;5.72;5.13;;;18.90;65.80;;;;;;6307572;22;20008;-85
2021/06/12 07:04:08;;;;;;;5.70;5.00;;;18.90;65.30;;;;;;6279356;22;20003;-84
2021/06/12 07:06:34;;;;;;;6.82;5.28;;;18.90;65.10;;;;;;6280849;22;20576;-85
2021/06/12 07:08:59;;;;;;;7.05;4.97;;;18.90;65.00;;;;;;6280341;22;20015;-85
2021/06/12 07:11:25;;;;;;;6.72;4.70;;;18.90;64.80;;;;;;6279817;22;19999;-84
2021/06/12 07:13:51;;;;;;;8.02;5.40;;;18.90;64.60;;;;;;6307682;22;20003;-85
2021/06/12 07:16:17;;;;;;;6.97;5.03;;;19.00;64.80;;;;;;6280106;22;20003;-84
2021/06/12 07:18:43;;;;;;;6.13;5.45;;;19.00;64.40;;;;;;6280632;22;20056;-85
2021/06/12 07:21:08;;;;;;;5.30;4.70;;;19.10;64.50;;;;;;6279758;22;20437;-84
2021/06/12 07:23:34;;;;;;;7.60;5.40;;;19.20;64.20;;;;;;6280414;22;20007;-85
2021/06/12 07:26:00;;;;;;;7.05;4.90;;;19.20;64.00;;;;;;6280882;22;20515;-85
2021/06/12 07:28:25;;;;;;;6.13;4.85;;;19.40;63.60;;;;;;6279798;22;20082;-85
2021/06/12 07:30:51;;;;;;;5.38;4.50;;;19.50;63.30;;;;;;6280233;22;20007;-84
2021/06/12 07:33:19;;;;;;;9.02;5.05;;;19.60;63.30;;;;;;6278779;22;20076;-85
2021/06/12 07:35:46;;;;;;;6.85;5.15;;;19.60;62.80;;;;;;6307290;22;20050;-85
2021/06/12 07:38:12;;;;;;;8.43;5.22;;;19.60;62.80;;;;;;6278678;22;20005;-84
2021/06/12 07:40:39;;;;;;;9.05;5.72;;;19.70;62.80;;;;;;6280029;22;20003;-85
2021/06/12 07:43:05;;;;;;;9.73;5.18;;;19.70;62.60;;;;;;6305924;22;20002;-85
2021/06/12 07:45:30;;;;;;;8.00;4.75;;;19.80;62.60;;;;;;6278929;22;20019;-85
2021/06/12 07:47:56;;;;;;;6.63;4.75;;;19.90;62.30;;;;;;6279632;22;20094;-85
2021/06/12 07:50:24;;;;;;;5.07;4.22;;;20.10;62.00;;;;;;6279239;22;20045;-84
2021/06/12 07:52:50;;;;;;;7.32;5.25;;;20.20;61.50;;;;;;6279218;22;20031;-84
2021/06/12 07:55:16;;;;;;;9.93;4.55;;;20.30;61.10;;;;;;6278990;22;19996;-84
2021/06/12 07:57:42;;;;;;;6.28;4.40;;;20.50;60.60;;;;;;6306719;22;20066;-85
2021/06/12 08:00:09;;;;;;;9.70;4.28;;;20.50;60.20;;;;;;6279312;22;20000;-85
2021/06/12 08:02:36;;;;;;;5.70;4.47;;;20.70;59.70;;;;;;6278412;22;19999;-85
2021/06/12 08:05:01;;;;;;;4.70;4.22;;;20.90;59.20;;;;;;6307615;22;19991;-85
2021/06/12 08:07:27;;;;;;;4.63;4.22;;;21.10;58.80;;;;;;6280209;22;20341;-85
2021/06/12 08:09:53;;;;;;;6.55;3.50;;;21.20;57.90;;;;;;6280380;22;20014;-85
2021/06/12 08:12:20;;;;;;;4.75;4.25;;;21.20;57.60;;;;;;6279969;22;20007;-85
2021/06/12 08:14:50;;;;;;;6.18;3.85;;;21.30;57.00;;;;;;6279663;22;19999;-85
2021/06/12 08:17:18;;;;;;;4.80;4.30;;;21.50;56.50;;;;;;6279995;22;20003;-85
2021/06/12 08:19:44;;;;;;;4.75;3.78;;;21.60;56.80;;;;;;6280216;22;20368;-85
2021/06/12 08:22:13;;;;;;;4.70;3.78;;;21.80;56.60;;;;;;6306811;22;20030;-85
2021/06/12 08:24:39;;;;;;;5.07;4.40;;;22.00;55.80;;;;;;6280336;22;20013;-85
2021/06/12 08:27:05;;;;;;;4.13;3.72;;;22.20;55.10;;;;;;6307442;22;20070;-85
2021/06/12 08:29:31;;;;;;;4.03;3.58;;;22.30;54.70;;;;;;6280078;22;20007;-85
2021/06/12 08:31:57;;;;;;;5.13;4.10;;;22.50;53.70;;;;;;6279735;22;19995;-85
2021/06/12 08:34:23;;;;;;;3.80;3.25;;;22.40;53.20;;;;;;6279115;22;20367;-85
2021/06/12 08:36:50;;;;;;;4.68;3.85;;;22.40;53.50;;;;;;6280222;22;20426;-85
2021/06/12 08:39:16;;;;;;;4.20;3.63;;;22.60;54.10;;;;;;6280082;22;20377;-85
2021/06/12 08:41:42;;;;;;;7.03;4.35;;;22.70;54.20;;;;;;6279809;22;20004;-85
2021/06/12 08:44:10;;;;;;;7.28;4.13;;;22.70;54.20;;;;;;6306762;22;20006;-85
2021/06/12 08:46:38;;;;;;;4.18;3.78;;;22.80;53.60;;;;;;6279370;22;20015;-85
2021/06/12 08:49:03;;;;;;;5.60;3.65;;;23.00;53.20;;;;;;6278928;22;20011;-85
2021/06/12 08:51:29;;;;;;;7.50;3.58;;;23.10;52.50;;;;;;6279050;22;19996;-85
2021/06/12 08:53:55;;;;;;;4.13;3.67;;;23.20;52.10;;;;;;6279656;22;20010;-85
2021/06/12 08:56:21;;;;;;;4.07;3.67;;;23.30;52.20;;;;;;6279399;22;20003;-85
2021/06/12 08:58:47;;;;;;;6.55;3.80;;;23.30;52.10;;;;;;6279547;22;20388;-85
2021/06/12 09:01:12;;;;;;;3.83;3.53;;;23.50;51.80;;;;;;6279368;22;20388;-85
2021/06/12 09:03:44;;;;;;;4.13;3.72;;;23.60;51.30;;;;;;6307132;22;20004;-86
2021/06/12 09:06:12;;;;;;;4.53;3.35;;;23.70;51.00;;;;;;6279260;22;20022;-85
2021/06/12 09:08:40;;;;;;;6.00;3.63;;;23.80;51.10;;;;;;6279041;22;20004;-85
2021/06/12 09:11:07;;;;;;;4.43;3.17;;;23.90;50.50;;;;;;6278504;22;19999;-85
2021/06/12 09:13:51;;;;;;;4.65;3.50;;;24.00;50.30;;;;;;6278439;22;20003;-87
2021/06/12 09:16:25;;;;;;;4.03;3.40;;;24.10;50.20;;;;;;6279501;22;20003;-87
2021/06/12 09:18:53;;;;;;;3.80;3.28;;;24.20;50.10;;;;;;6306989;22;20003;-87
2021/06/12 09:21:26;;;;;;;4.22;3.28;;;24.20;49.90;;;;;;6277592;22;20090;-87
2021/06/12 09:23:53;;;;;;;5.53;3.80;;;24.40;49.90;;;;;;6277646;22;20084;-87
2021/06/12 09:26:21;;;;;;;5.43;3.97;;;24.60;49.30;;;;;;6304847;22;20430;-87
2021/06/12 09:28:55;;;;;;;4.22;3.75;;;24.60;49.20;;;;;;6279975;22;20082;-87
2021/06/12 09:31:24;;;;;;;4.47;3.50;;;24.70;49.10;;;;;;6280292;22;20464;-87
2021/06/12 09:33:52;;;;;;;4.60;3.50;;;24.70;48.70;;;;;;6281047;22;20341;-87
2021/06/12 09:36:18;;;;;;;3.42;3.13;;;24.90;48.00;;;;;;6281317;22;20000;-87
2021/06/12 09:38:44;;;;;;;4.78;3.50;;;24.80;47.40;;;;;;6280903;22;20058;-86
2021/06/12 09:41:29;;;;;;;4.65;3.63;;;24.90;47.10;;;;;;6308711;22;20437;-87
2021/06/12 09:43:55;;;;;;;4.65;3.50;;;25.10;47.70;;;;;;6306876;22;19999;-86
2021/06/12 09:46:36;;;;;;;4.28;3.45;;;25.20;48.10;;;;;;6273407;22;20011;-87
2021/06/12 09:49:03;;;;;;;4.22;3.15;;;25.40;47.10;;;;;;6275901;22;20019;-87
2021/06/12 09:51:29;;;;;;;4.70;3.38;;;25.40;47.40;;;;;;6277414;22;20004;-87
2021/06/12 09:53:57;;;;;;;4.53;3.20;;;25.50;46.50;;;;;;6275828;22;20032;-87
2021/06/12 09:56:27;;;;;;;4.63;3.13;;;25.50;46.00;;;;;;6275481;22;19996;-87
2021/06/12 09:58:54;;;;;;;6.78;3.00;;;25.60;46.00;;;;;;6275620;22;20008;-87
2021/06/12 10:01:23;;;;;;;4.32;3.45;;;25.60;45.80;;;;;;6275571;22;20011;-87
2021/06/12 10:04:06;;;;;;;3.67;3.38;;;25.60;45.80;;;;;;6277547;22;20334;-87
2021/06/12 10:06:32;;;;;;;4.47;3.00;;;25.80;45.50;;;;;;6275601;22;20022;-87
2021/06/12 10:09:07;;;;;;;3.20;2.90;;;25.60;45.50;;;;;;6275252;22;20366;-87
2021/06/12 10:11:35;;;;;;;3.45;3.15;;;25.50;46.20;;;;;;6275280;22;20054;-86
2021/06/12 10:14:02;;;;;;;6.30;3.53;;;25.40;46.30;;;;;;6275800;22;20054;-87
2021/06/12 10:16:30;;;;;;;2.97;2.67;;;25.30;46.30;;;;;;6275848;22;20079;-87
2021/06/12 10:18:57;;;;;;;4.57;4.05;;;25.10;46.30;;;;;;6274350;22;20004;-85
2021/06/12 10:21:24;;;;;;;3.60;3.30;;;25.00;46.40;;;;;;6274917;22;20000;-85
2021/06/12 10:23:50;;;;;;;4.35;3.38;;;24.90;46.50;;;;;;6275887;22;20004;-85
2021/06/12 10:26:19;;;;;;;4.97;3.53;;;25.00;46.20;;;;;;6277178;22;20014;-85
2021/06/12 10:28:45;;;;;;;3.83;3.22;;;25.20;45.50;;;;;;6277070;22;20045;-85
2021/06/12 10:31:22;;;;;;;3.72;3.30;;;25.40;45.60;;;;;;6274763;22;20037;-86
2021/06/12 10:33:52;;;;;;;4.57;4.18;;;25.70;45.20;;;;;;6276765;22;20002;-85
2021/06/12 10:36:25;;;;;;;3.20;2.90;;;25.80;44.10;;;;;;6275325;22;20000;-85
2021/06/12 10:38:53;;;;;;;7.13;3.65;;;25.70;44.30;;;;;;6275091;22;20496;-85
2021/06/12 10:41:20;;;;;;;4.28;3.20;;;25.60;45.20;;;;;;6277260;22;20007;-86
2021/06/12 10:43:47;;;;;;;4.68;3.00;;;25.50;45.10;;;;;;6276067;22;20016;-86
2021/06/12 10:46:19;;;;;;;3.60;3.30;;;25.40;45.80;;;;;;6300457;22;20023;-86
2021/06/12 10:49:05;;;;;;;;;;;25.30;46.80;;;;;;6277001;22;20008;-86
2021/06/12 10:51:31;;;;;;;7.72;3.50;;;25.20;47.00;;;;;;6303449;22;19948;-85
2021/06/12 10:54:19;;;;;;;3.78;3.35;;;25.20;47.40;;;;;;6278005;22;20458;-85
2021/06/12 10:56:52;;;;;;;4.78;4.13;;;25.10;47.30;;;;;;6277588;22;20448;-85
2021/06/12 10:59:41;;;;;;;5.57;4.97;;;25.10;47.60;;;;;;6277380;22;20011;-85
2021/06/12 11:05:10;;;;;;;3.97;3.55;;;25.50;48.40;;;;;;6314456;22;20008;-85
2021/06/12 11:07:38;;;;;;;7.90;4.15;;;25.80;47.20;;;;;;6306466;22;20612;-86
2021/06/12 11:10:13;;;;;;;3.42;2.88;;;26.10;46.10;;;;;;6306646;22;20000;-85
2021/06/12 11:12:47;;;;;;;5.13;3.38;;;26.20;45.60;;;;;;6279300;22;20052;-85
2021/06/12 11:15:21;;;;;;;7.22;3.90;;;26.30;45.20;;;;;;6308150;22;20003;-86
2021/06/12 11:18:11;;;;;;;4.50;2.75;;;26.20;44.50;;;;;;6279776;22;20031;-87
2021/06/12 11:20:37;;;;;;;3.50;3.17;;;26.10;43.30;;;;;;6280838;22;20023;-87
2021/06/12 11:23:05;;;;;;;3.30;3.00;;;26.00;44.00;;;;;;6279574;22;20000;-87
2021/06/12 11:25:31;;;;;;;4.65;3.25;;;25.80;44.50;;;;;;6279247;22;20445;-86
2021/06/12 11:28:18;;;;;;;3.45;2.85;;;25.80;44.70;;;;;;6280040;22;19999;-86
2021/06/12 11:30:44;;;;;;;4.63;2.80;;;25.70;45.10;;;;;;6279478;22;19999;-86
2021/06/12 11:33:13;;;;;;;4.25;3.30;;;25.60;44.40;;;;;;6306616;22;20081;-86
2021/06/12 11:35:56;;;;;;;2.60;2.40;;;25.60;44.30;;;;;;6278086;22;20010;-85
2021/06/12 11:38:38;;;;;;;3.60;2.80;;;25.60;42.70;;;;;;6307225;22;20053;-87
2021/06/12 11:41:12;;;;;;;3.05;2.40;;;25.60;42.50;;;;;;6307477;22;20440;-86
2021/06/12 11:43:43;;;;;;;3.08;2.35;;;25.60;43.50;;;;;;6280013;22;20010;-86
2021/06/12 11:46:14;;;;;;;4.53;2.55;;;25.80;43.20;;;;;;6280168;22;20011;-86
2021/06/12 11:48:45;;;;;;;2.78;2.40;;;25.90;42.30;;;;;;6279645;22;20384;-87
2021/06/12 11:51:18;;;;;;;3.63;2.45;;;26.10;41.10;;;;;;6279198;22;20014;-86
2021/06/12 11:54:12;;;;;;;2.70;2.50;;;26.30;40.50;;;;;;6279509;22;20006;-86
2021/06/12 11:56:51;;;;;;;2.28;2.08;;;26.40;39.70;;;;;;6277927;22;20418;-87
2021/06/12 11:59:20;;;;;;;4.82;2.25;;;26.40;40.20;;;;;;6307013;22;20483;-87
2021/06/12 12:01:58;;;;;;;2.63;2.42;;;26.40;39.90;;;;;;6276850;22;20007;-86
2021/06/12 12:04:25;;;;;;;3.80;2.33;;;26.50;39.50;;;;;;6278032;22;20007;-87
2021/06/12 12:06:56;;;;;;;2.65;2.00;;;26.60;39.60;;;;;;6279432;22;20052;-86
2021/06/12 12:09:37;;;;;;;4.60;2.40;;;26.60;40.20;;;;;;6306819;22;20008;-86
2021/06/12 12:12:09;;;;;;;3.55;2.40;;;26.40;39.70;;;;;;6306697;22;20070;-85
2021/06/12 12:14:43;;;;;;;8.93;2.45;;;26.30;39.80;;;;;;6277240;22;19995;-85
2021/06/12 12:17:35;;;;;;;3.30;2.50;;;26.20;40.00;;;;;;6274265;22;20014;-84
2021/06/12 12:20:10;;;;;;;3.17;2.50;;;26.10;39.50;;;;;;6271687;22;20022;-85
2021/06/12 12:22:40;;;;;;;3.05;2.47;;;26.00;40.90;;;;;;6277867;22;20007;-85
2021/06/12 12:25:08;;;;;;;3.15;2.28;;;26.00;42.70;;;;;;6277813;22;19996;-85
2021/06/12 12:27:34;;;;;;;3.58;3.25;;;26.00;43.70;;;;;;6306667;22;20019;-85
2021/06/12 12:30:00;;;;;;;3.60;2.60;;;26.00;44.10;;;;;;6278648;22;20015;-85
2021/06/12 12:32:25;;;;;;;3.25;2.95;;;26.00;44.20;;;;;;6279564;22;20023;-85
2021/06/12 12:34:51;;;;;;;4.15;2.97;;;26.10;44.60;;;;;;6279753;22;20007;-84
2021/06/12 12:37:19;;;;;;;4.25;2.67;;;26.20;45.30;;;;;;6306737;22;19995;-85
2021/06/12 12:39:48;;;;;;;4.45;2.63;;;26.40;43.90;;;;;;6307052;22;20011;-83
2021/06/12 12:42:25;;;;;;;2.70;2.50;;;26.50;43.00;;;;;;6279511;22;20080;-85
2021/06/12 12:44:54;;;;;;;3.22;2.50;;;26.70;40.80;;;;;;6279063;22;20104;-84
2021/06/12 12:47:25;;;;;;;2.45;2.20;;;26.70;40.80;;;;;;6307051;22;19999;-85
2021/06/12 12:49:52;;;;;;;5.27;2.90;;;26.90;40.70;;;;;;6278538;22;20015;-83
2021/06/12 12:52:25;;;;;;;3.70;2.58;;;26.90;40.80;;;;;;6306212;22;19999;-86
2021/06/12 12:54:59;;;;;;;;;;;26.90;39.90;;;;;;6280168;22;20003;-85
2021/06/12 12:57:26;;;;;;;4.80;2.78;;;26.90;40.20;;;;;;6279166;22;19899;-85